Time;durP1;ratioP1;P1;durP2;ratioP2;P2;SDS_P1;SDS_P2;PMS_P1;PMS_P2;Temp;Humidity;BMP_temperature;BMP_pressure;BME280_temperature;BME280_humidity;BME280_pressure;Samples;Min_cycle;Max_cycle;Signal;HPM_P1;HPM_P2
2022/09/05 00:00:00;;;;;;;3.03;0.70;;;19.00;98.30;;;;;;5033812;28;20080;-80
2022/09/05 00:02:46;;;;;;;0.65;0.40;;;18.90;98.80;;;;;;5059581;28;20041;-80
2022/09/05 00:05:50;;;;;;;0.40;0.30;;;18.90;99.10;;;;;;5030054;28;20162;-80
2022/09/05 00:08:27;;;;;;;0.45;0.45;;;18.90;99.10;;;;;;5036296;28;20052;-80
2022/09/05 00:11:03;;;;;;;0.75;0.52;;;18.90;99.30;;;;;;5049577;28;20191;-80
2022/09/05 00:13:45;;;;;;;0.73;0.50;;;18.80;99.00;;;;;;5049544;28;20045;-80
2022/09/05 00:16:55;;;;;;;0.88;0.55;;;18.70;98.90;;;;;;5049592;28;20063;-80
2022/09/05 00:19:40;;;;;;;0.50;0.50;;;18.70;99.30;;;;;;5065604;28;20043;-80
2022/09/05 00:22:28;;;;;;;0.73;0.43;;;18.70;99.10;;;;;;5049580;28;20405;-80
2022/09/05 00:24:55;;;;;;;0.95;0.52;;;18.70;99.70;;;;;;5049082;28;20413;-80
2022/09/05 00:27:38;;;;;;;0.40;0.30;;;18.70;99.30;;;;;;5049465;28;20040;-80
2022/09/05 00:30:12;;;;;;;0.88;0.50;;;18.60;99.30;;;;;;5049102;28;20512;-80
2022/09/05 00:32:54;;;;;;;0.60;0.40;;;18.60;99.20;;;;;;5049358;28;20408;-80
2022/09/05 00:35:20;;;;;;;1.00;0.63;;;18.60;99.40;;;;;;5065574;28;20072;-80
2022/09/05 00:37:49;;;;;;;0.73;0.38;;;18.60;99.30;;;;;;5065345;28;20041;-80
2022/09/05 00:40:39;;;;;;;0.73;0.50;;;18.60;99.00;;;;;;5082389;28;20374;-80
2022/09/05 00:43:26;;;;;;;0.55;0.40;;;18.60;99.70;;;;;;5012805;28;20494;-80
2022/09/05 00:46:02;;;;;;;0.52;0.47;;;18.60;99.60;;;;;;5048903;28;20048;-80
2022/09/05 00:48:52;;;;;;;0.65;0.47;;;18.60;99.40;;;;;;5029539;28;20077;-80
2022/09/05 00:51:35;;;;;;;1.05;0.60;;;18.50;99.20;;;;;;5029449;28;20046;-80
2022/09/05 00:54:24;;;;;;;0.73;0.40;;;18.50;99.70;;;;;;5029215;28;20065;-80
2022/09/05 00:57:13;;;;;;;0.30;0.30;;;18.50;99.90;;;;;;5029208;28;20133;-80
2022/09/05 01:00:09;;;;;;;0.50;0.50;;;18.50;99.80;;;;;;5029552;28;20045;-80
2022/09/05 01:02:55;;;;;;;0.88;0.60;;;18.40;99.90;;;;;;5044043;28;20050;-80
2022/09/05 01:05:51;;;;;;;0.57;0.50;;;18.40;99.90;;;;;;5046019;28;20042;-80
2022/09/05 01:08:18;;;;;;;0.63;0.40;;;18.40;99.70;;;;;;5029290;28;20041;-80
2022/09/05 01:11:32;;;;;;;0.55;0.40;;;18.30;99.60;;;;;;5045694;28;20513;-80
2022/09/05 01:14:07;;;;;;;0.52;0.43;;;18.30;99.90;;;;;;4988973;28;20054;-80
2022/09/05 01:17:13;;;;;;;0.43;0.43;;;18.20;99.90;;;;;;5025617;28;20540;-80
2022/09/05 01:19:58;;;;;;;0.90;0.60;;;18.20;99.90;;;;;;5014150;28;20382;-80
2022/09/05 01:22:37;;;;;;;0.63;0.47;;;18.20;99.90;;;;;;5045876;28;20076;-80
2022/09/05 01:25:25;;;;;;;0.50;0.50;;;18.20;99.90;;;;;;5045428;28;20132;-80
2022/09/05 01:28:10;;;;;;;0.40;0.40;;;18.20;99.90;;;;;;5045117;28;20129;-80
2022/09/05 01:30:59;;;;;;;0.98;0.70;;;18.20;99.90;;;;;;5046534;28;20041;-80
2022/09/05 01:33:42;;;;;;;0.60;0.60;;;18.10;99.90;;;;;;5048758;28;20045;-80
2022/09/05 01:36:41;;;;;;;0.45;0.40;;;18.10;99.90;;;;;;5050573;28;20367;-80
2022/09/05 01:39:16;;;;;;;0.50;0.30;;;18.10;99.90;;;;;;5039977;28;20052;-80
2022/09/05 01:41:52;;;;;;;0.88;0.60;;;18.00;99.90;;;;;;5070872;28;20038;-80
2022/09/05 01:44:58;;;;;;;0.43;0.32;;;18.00;99.90;;;;;;5048705;28;20438;-80
2022/09/05 01:47:34;;;;;;;0.65;0.45;;;18.00;99.90;;;;;;5074782;28;20049;-80
2022/09/05 01:50:26;;;;;;;0.75;0.43;;;17.90;99.90;;;;;;5052111;28;20037;-80
2022/09/05 01:53:24;;;;;;;0.63;0.45;;;17.90;99.90;;;;;;5042859;28;20543;-79
2022/09/05 01:55:53;;;;;;;0.28;0.25;;;17.90;99.90;;;;;;5052050;28;20049;-80
2022/09/05 01:58:51;;;;;;;0.55;0.43;;;17.90;99.90;;;;;;5052073;28;20041;-80
2022/09/05 02:01:32;;;;;;;0.63;0.60;;;17.90;99.90;;;;;;5051657;28;20037;-80
2022/09/05 02:04:33;;;;;;;0.30;0.30;;;17.90;99.90;;;;;;5051586;28;20057;-80
2022/09/05 02:07:29;;;;;;;0.50;0.40;;;17.80;99.90;;;;;;5051687;28;20083;-80
2022/09/05 02:10:31;;;;;;;0.80;0.65;;;17.80;99.90;;;;;;5067930;28;20131;-80
2022/09/05 02:13:01;;;;;;;0.82;0.40;;;17.70;99.90;;;;;;5051659;28;20102;-80
2022/09/05 02:15:40;;;;;;;0.43;0.40;;;17.80;99.90;;;;;;5051553;28;20053;-80
2022/09/05 02:18:14;;;;;;;0.70;0.50;;;17.70;99.90;;;;;;5051270;28;20044;-80
2022/09/05 02:20:47;;;;;;;0.47;0.40;;;17.70;99.90;;;;;;5068316;28;20041;-80
2022/09/05 02:23:16;;;;;;;0.88;0.55;;;17.70;99.90;;;;;;5084505;28;20060;-80
2022/09/05 02:25:56;;;;;;;0.68;0.40;;;17.70;99.90;;;;;;5051348;28;20401;-80
2022/09/05 02:28:49;;;;;;;0.50;0.50;;;17.70;99.90;;;;;;5051256;28;20501;-80
2022/09/05 02:31:42;;;;;;;0.52;0.45;;;17.60;99.90;;;;;;5051044;28;20057;-80
2022/09/05 02:34:11;;;;;;;0.43;0.32;;;17.60;99.90;;;;;;5051020;28;20468;-80
2022/09/05 02:36:54;;;;;;;0.40;0.30;;;17.50;99.90;;;;;;5051024;28;20378;-80
2022/09/05 02:39:32;;;;;;;0.47;0.40;;;17.50;99.90;;;;;;5067417;28;20049;-80
2022/09/05 02:42:08;;;;;;;0.65;0.47;;;17.50;99.90;;;;;;5066940;28;20120;-80
2022/09/05 02:44:45;;;;;;;0.40;0.40;;;17.40;99.90;;;;;;5050971;28;20918;-79
2022/09/05 02:47:26;;;;;;;0.95;0.50;;;17.40;99.90;;;;;;5067247;28;20476;-80
2022/09/05 02:50:18;;;;;;;0.50;0.40;;;17.30;99.90;;;;;;5051010;28;20405;-80
2022/09/05 02:52:47;;;;;;;0.50;0.50;;;17.30;99.90;;;;;;5050754;28;20041;-80
2022/09/05 02:55:46;;;;;;;0.30;0.30;;;17.20;99.90;;;;;;5050519;28;20136;-80
2022/09/05 02:58:45;;;;;;;0.40;0.38;;;17.10;99.90;;;;;;5018341;28;20073;-80
2022/09/05 03:01:41;;;;;;;0.80;0.50;;;17.10;99.90;;;;;;5041534;28;20045;-80
2022/09/05 03:04:44;;;;;;;0.50;0.32;;;17.00;99.90;;;;;;5063335;28;20112;-80
2022/09/05 03:07:31;;;;;;;0.75;0.55;;;16.90;99.90;;;;;;5030745;28;20048;-80
2022/09/05 03:09:58;;;;;;;1.17;0.55;;;16.90;99.90;;;;;;5032492;28;20038;-80
2022/09/05 03:12:40;;;;;;;0.47;0.40;;;16.80;99.90;;;;;;5050341;28;20073;-80
2022/09/05 03:15:34;;;;;;;0.40;0.40;;;16.80;99.90;;;;;;5083173;28;20080;-80
2022/09/05 03:18:01;;;;;;;0.65;0.40;;;16.70;99.90;;;;;;5050573;28;20120;-80
2022/09/05 03:21:05;;;;;;;0.55;0.40;;;16.70;99.90;;;;;;5050309;28;20486;-80
2022/09/05 03:23:37;;;;;;;0.65;0.45;;;16.70;99.90;;;;;;5050452;28;20087;-80
2022/09/05 03:26:42;;;;;;;0.22;0.22;;;16.60;99.90;;;;;;5050150;28;20114;-80
2022/09/05 03:29:26;;;;;;;0.47;0.38;;;16.50;99.90;;;;;;5049768;28;20042;-80
2022/09/05 03:32:13;;;;;;;0.40;0.40;;;16.50;99.90;;;;;;5066478;28;20051;-80
2022/09/05 03:35:02;;;;;;;2.38;0.88;;;16.40;99.90;;;;;;5083327;28;20048;-80
2022/09/05 03:38:06;;;;;;;0.75;0.60;;;16.40;99.90;;;;;;5030051;28;20084;-80
2022/09/05 03:40:49;;;;;;;0.50;0.30;;;16.40;99.90;;;;;;5030166;28;20077;-80
2022/09/05 03:44:00;;;;;;;0.32;0.32;;;16.30;99.90;;;;;;5030094;28;20498;-80
2022/09/05 03:46:58;;;;;;;0.57;0.47;;;16.30;99.90;;;;;;5046200;28;20045;-80
2022/09/05 03:49:40;;;;;;;0.80;0.65;;;16.20;99.90;;;;;;5043880;28;20839;-80
2022/09/05 03:52:50;;;;;;;0.80;0.50;;;16.20;99.90;;;;;;5049569;28;20505;-80
2022/09/05 03:55:36;;;;;;;1.38;0.73;;;16.20;99.90;;;;;;5066139;28;20124;-80
2022/09/05 03:58:16;;;;;;;0.65;0.50;;;16.30;99.90;;;;;;5066258;28;20049;-80
2022/09/05 04:01:13;;;;;;;0.55;0.50;;;16.20;99.90;;;;;;5083222;28;20073;-80
2022/09/05 04:03:47;;;;;;;0.82;0.50;;;16.20;99.90;;;;;;5082651;28;20056;-80
2022/09/05 04:06:18;;;;;;;0.52;0.50;;;16.20;99.90;;;;;;5066276;28;20064;-80
2022/09/05 04:08:50;;;;;;;0.50;0.50;;;16.20;99.90;;;;;;5066215;28;20049;-80
2022/09/05 04:11:37;;;;;;;0.43;0.35;;;16.20;99.90;;;;;;5049870;28;20048;-80
2022/09/05 04:14:10;;;;;;;0.63;0.50;;;16.10;99.90;;;;;;5049933;28;20045;-80
2022/09/05 04:16:59;;;;;;;1.55;0.60;;;16.10;99.90;;;;;;5049453;28;20053;-80
2022/09/05 04:20:13;;;;;;;0.45;0.38;;;16.00;99.90;;;;;;5066088;28;20091;-80
2022/09/05 04:23:16;;;;;;;0.65;0.40;;;16.00;99.90;;;;;;5043459;28;20046;-80
2022/09/05 04:26:02;;;;;;;1.20;0.60;;;16.00;99.90;;;;;;5049432;28;20524;-80
2022/09/05 04:29:06;;;;;;;0.93;0.45;;;16.00;99.90;;;;;;5065657;28;20088;-80
2022/09/05 04:31:47;;;;;;;0.93;0.45;;;15.90;99.90;;;;;;5048891;28;20045;-80
2022/09/05 04:34:38;;;;;;;0.80;0.52;;;15.90;99.90;;;;;;5048800;28;20049;-80
2022/09/05 04:37:10;;;;;;;0.28;0.22;;;15.80;99.90;;;;;;5049033;28;20114;-80
2022/09/05 04:39:36;;;;;;;0.52;0.47;;;15.80;99.90;;;;;;5048822;28;20037;-80
2022/09/05 04:42:03;;;;;;;0.52;0.30;;;15.70;99.90;;;;;;5033011;28;20631;-80
2022/09/05 04:44:39;;;;;;;0.47;0.40;;;15.70;99.90;;;;;;5048730;28;20045;-80
2022/09/05 04:47:19;;;;;;;1.13;0.52;;;15.60;99.90;;;;;;5048967;28;20124;-80
2022/09/05 04:50:08;;;;;;;0.77;0.47;;;15.60;99.90;;;;;;5049012;28;20107;-80
2022/09/05 04:53:03;;;;;;;0.80;0.50;;;15.50;99.90;;;;;;5045514;28;20054;-80
2022/09/05 04:55:54;;;;;;;0.38;0.38;;;15.40;99.90;;;;;;5030534;28;20080;-80
2022/09/05 04:58:35;;;;;;;0.55;0.50;;;15.40;99.90;;;;;;5057214;28;20113;-80
2022/09/05 05:01:11;;;;;;;0.80;0.45;;;15.40;99.90;;;;;;5046594;28;20434;-80
2022/09/05 05:03:38;;;;;;;0.68;0.50;;;15.40;99.90;;;;;;5042256;28;20084;-80
2022/09/05 05:06:11;;;;;;;0.30;0.30;;;15.30;99.90;;;;;;5068949;28;20053;-81
2022/09/05 05:08:59;;;;;;;0.63;0.50;;;15.30;99.90;;;;;;5052459;28;20045;-80
2022/09/05 05:11:48;;;;;;;0.52;0.50;;;15.30;99.90;;;;;;5052276;28;20112;-80
2022/09/05 05:14:41;;;;;;;0.43;0.43;;;15.20;99.90;;;;;;5050470;28;20132;-80
2022/09/05 05:17:28;;;;;;;0.40;0.30;;;15.20;99.90;;;;;;5032765;28;20045;-80
2022/09/05 05:20:07;;;;;;;0.70;0.50;;;15.30;99.90;;;;;;5065529;28;20080;-80
2022/09/05 05:22:36;;;;;;;0.85;0.40;;;15.20;99.90;;;;;;5032528;28;20528;-80
2022/09/05 05:25:10;;;;;;;0.73;0.50;;;15.20;99.90;;;;;;5032494;28;20496;-80
2022/09/05 05:27:48;;;;;;;0.60;0.43;;;15.20;99.90;;;;;;5033469;28;20544;-80
2022/09/05 05:30:25;;;;;;;1.35;0.52;;;15.20;99.90;;;;;;5032372;28;20041;-80
2022/09/05 05:32:54;;;;;;;0.57;0.40;;;15.20;99.90;;;;;;5032522;28;20038;-80
2022/09/05 05:35:27;;;;;;;0.65;0.60;;;15.20;99.90;;;;;;5048725;28;20132;-81
2022/09/05 05:38:13;;;;;;;0.77;0.50;;;15.30;99.90;;;;;;5032508;28;20045;-80
2022/09/05 05:40:45;;;;;;;;;;;15.30;99.90;;;;;;5048887;28;20073;-80
2022/09/05 05:43:19;;;;;;;0.50;0.43;;;15.30;99.90;;;;;;5065372;28;19928;-80
2022/09/05 05:45:57;;;;;;;0.43;0.40;;;15.40;99.90;;;;;;5032244;28;20052;-80
2022/09/05 05:48:34;;;;;;;0.85;0.50;;;15.40;99.90;;;;;;5032139;28;20482;-80
2022/09/05 05:51:22;;;;;;;0.85;0.50;;;15.50;99.90;;;;;;5032126;28;20513;-80
2022/09/05 05:53:58;;;;;;;1.90;0.98;;;15.50;99.90;;;;;;5081405;28;20044;-80
2022/09/05 05:57:17;;;;;;;0.55;0.40;;;15.60;99.90;;;;;;5056647;28;20092;-81
2022/09/05 05:59:59;;;;;;;0.57;0.57;;;15.70;99.90;;;;;;5042231;28;20809;-81
2022/09/05 06:02:32;;;;;;;0.50;0.50;;;15.70;99.90;;;;;;5050968;28;20103;-81
2022/09/05 06:05:14;;;;;;;0.47;0.45;;;15.80;99.90;;;;;;5054084;28;20045;-80
2022/09/05 06:07:51;;;;;;;0.43;0.40;;;15.80;99.90;;;;;;5045071;28;20405;-80
2022/09/05 06:11:04;;;;;;;0.75;0.52;;;15.90;99.90;;;;;;5047884;28;20042;-80
2022/09/05 06:14:05;;;;;;;0.68;0.47;;;15.90;99.90;;;;;;5031431;28;20042;-80
2022/09/05 06:16:55;;;;;;;0.93;0.55;;;15.90;99.90;;;;;;5031139;28;20527;-80
2022/09/05 06:19:58;;;;;;;0.98;0.52;;;16.00;99.90;;;;;;5067733;28;20440;-80
2022/09/05 06:22:29;;;;;;;0.93;0.77;;;15.90;99.90;;;;;;5065189;28;20050;-81
2022/09/05 06:25:26;;;;;;;0.65;0.57;;;16.00;99.90;;;;;;5050892;28;20056;-80
2022/09/05 06:28:04;;;;;;;0.60;0.40;;;16.00;99.90;;;;;;5067212;28;20042;-80
2022/09/05 06:30:49;;;;;;;0.85;0.40;;;16.10;99.90;;;;;;5050850;28;20037;-81
2022/09/05 06:33:31;;;;;;;1.35;0.70;;;16.00;99.90;;;;;;5036289;28;20497;-80
2022/09/05 06:36:23;;;;;;;0.68;0.50;;;16.10;99.90;;;;;;5067197;28;20045;-80
2022/09/05 06:39:14;;;;;;;0.45;0.45;;;16.20;99.90;;;;;;5050603;28;20042;-80
2022/09/05 06:42:05;;;;;;;0.85;0.60;;;16.20;99.90;;;;;;5067377;28;20052;-79
2022/09/05 06:44:36;;;;;;;1.05;0.68;;;16.30;99.90;;;;;;5066913;28;20091;-80
2022/09/05 06:47:14;;;;;;;0.82;0.60;;;16.40;99.90;;;;;;5050620;28;20391;-80
2022/09/05 06:50:09;;;;;;;0.40;0.40;;;16.40;99.90;;;;;;5050485;28;20038;-82
2022/09/05 06:53:08;;;;;;;0.77;0.60;;;16.50;99.90;;;;;;5047172;28;20049;-79
2022/09/05 06:55:51;;;;;;;0.50;0.50;;;16.60;99.90;;;;;;5046692;28;20139;-79
2022/09/05 06:58:50;;;;;;;0.47;0.45;;;16.70;99.90;;;;;;5063722;28;20144;-80
2022/09/05 07:01:26;;;;;;;0.60;0.50;;;16.70;99.90;;;;;;5044580;28;20121;-80
2022/09/05 07:03:58;;;;;;;1.13;0.70;;;16.80;99.90;;;;;;5045035;28;20053;-81
2022/09/05 07:06:44;;;;;;;0.77;0.50;;;16.90;99.90;;;;;;5077813;28;20085;-78
2022/09/05 07:09:24;;;;;;;0.55;0.50;;;17.00;99.90;;;;;;5050231;28;20502;-79
2022/09/05 07:12:25;;;;;;;0.93;0.50;;;17.20;99.90;;;;;;5064341;28;20604;-79
2022/09/05 07:14:57;;;;;;;0.52;0.40;;;17.30;99.90;;;;;;5047024;28;20135;-79
2022/09/05 07:17:39;;;;;;;0.68;0.50;;;17.40;99.90;;;;;;5050378;28;20081;-79
2022/09/05 07:20:22;;;;;;;0.80;0.57;;;17.60;99.90;;;;;;5050350;28;20171;-79
2022/09/05 07:23:03;;;;;;;0.98;0.70;;;17.80;99.90;;;;;;5047832;28;20151;-79
2022/09/05 07:25:31;;;;;;;1.15;0.70;;;17.90;99.90;;;;;;5044709;28;20104;-80
2022/09/05 07:28:12;;;;;;;0.95;0.60;;;18.10;99.90;;;;;;5033213;28;20049;-79
2022/09/05 07:30:45;;;;;;;1.00;0.60;;;18.20;99.90;;;;;;5013833;28;20037;-79
2022/09/05 07:33:20;;;;;;;0.55;0.50;;;18.30;99.90;;;;;;5050231;28;20037;-79
2022/09/05 07:35:49;;;;;;;1.23;0.70;;;18.50;99.90;;;;;;5082744;28;20045;-79
2022/09/05 07:38:26;;;;;;;0.70;0.57;;;18.50;99.90;;;;;;5052514;28;20044;-79
2022/09/05 07:40:56;;;;;;;1.13;0.63;;;18.60;99.90;;;;;;5030201;28;20116;-79
2022/09/05 07:43:38;;;;;;;0.77;0.60;;;18.80;99.90;;;;;;5047546;28;20040;-77
2022/09/05 07:46:11;;;;;;;1.33;0.75;;;18.90;99.90;;;;;;5066146;28;20049;-78
2022/09/05 07:48:43;;;;;;;0.90;0.60;;;19.00;99.90;;;;;;5049769;28;20481;-80
2022/09/05 07:51:22;;;;;;;0.57;0.57;;;19.10;99.90;;;;;;5049824;28;20041;-78
2022/09/05 07:53:52;;;;;;;1.40;0.47;;;19.30;99.90;;;;;;5049492;28;20045;-78
2022/09/05 07:56:38;;;;;;;1.10;0.70;;;19.30;99.90;;;;;;5082413;28;20118;-78
2022/09/05 07:59:10;;;;;;;1.40;0.68;;;19.60;99.90;;;;;;5066308;28;20409;-79
2022/09/05 08:01:42;;;;;;;0.57;0.50;;;19.70;99.90;;;;;;5065940;28;20412;-78
2022/09/05 08:04:21;;;;;;;0.63;0.55;;;19.80;99.90;;;;;;5082446;28;20053;-78
2022/09/05 08:06:51;;;;;;;0.73;0.50;;;20.00;99.90;;;;;;5046409;28;20133;-79
2022/09/05 08:09:24;;;;;;;0.65;0.45;;;20.10;99.90;;;;;;5014257;28;20041;-79
2022/09/05 08:11:55;;;;;;;0.93;0.60;;;20.20;99.90;;;;;;5062208;28;20489;-79
2022/09/05 08:14:38;;;;;;;0.55;0.50;;;20.40;99.90;;;;;;5028884;28;20456;-81
2022/09/05 08:17:11;;;;;;;1.40;0.95;;;20.50;99.90;;;;;;5048211;28;20115;-78
2022/09/05 08:19:42;;;;;;;1.00;0.57;;;20.60;99.90;;;;;;5039682;28;20042;-78
2022/09/05 08:22:19;;;;;;;0.60;0.57;;;20.70;99.90;;;;;;5046670;28;20044;-78
2022/09/05 08:25:02;;;;;;;0.77;0.50;;;20.80;99.90;;;;;;5065178;28;20041;-78
2022/09/05 08:27:37;;;;;;;0.52;0.50;;;20.90;99.90;;;;;;5062495;28;20073;-78
2022/09/05 08:30:09;;;;;;;1.75;0.82;;;21.00;99.90;;;;;;5068887;28;20092;-78
2022/09/05 08:33:01;;;;;;;0.65;0.50;;;21.20;99.90;;;;;;5030021;28;20095;-78
2022/09/05 08:35:37;;;;;;;0.75;0.55;;;21.30;99.90;;;;;;5042044;28;20468;-78
2022/09/05 08:38:06;;;;;;;1.13;0.73;;;21.40;99.90;;;;;;5045587;28;20490;-78
2022/09/05 08:40:46;;;;;;;1.15;0.80;;;21.50;99.90;;;;;;5052159;28;20129;-77
2022/09/05 08:43:31;;;;;;;1.00;0.73;;;21.70;99.90;;;;;;5059144;28;20077;-79
2022/09/05 08:46:04;;;;;;;1.10;0.77;;;21.80;99.90;;;;;;5054993;28;20037;-78
2022/09/05 08:48:53;;;;;;;1.50;0.80;;;21.90;99.90;;;;;;5052851;28;20042;-78
2022/09/05 08:51:23;;;;;;;0.85;0.70;;;22.10;99.90;;;;;;5052540;28;20045;-78
2022/09/05 08:54:02;;;;;;;1.13;0.70;;;22.10;99.90;;;;;;5052410;28;20048;-78
2022/09/05 08:56:41;;;;;;;1.77;0.90;;;22.20;99.90;;;;;;5052607;28;20144;-78
2022/09/05 08:59:26;;;;;;;1.08;0.70;;;22.40;99.90;;;;;;5052054;28;20033;-78
2022/09/05 09:02:04;;;;;;;0.85;0.63;;;22.50;99.90;;;;;;5059180;28;20037;-78
2022/09/05 09:05:06;;;;;;;1.25;0.70;;;22.60;99.90;;;;;;5082949;28;20045;-79
2022/09/05 09:07:39;;;;;;;0.85;0.57;;;22.80;99.90;;;;;;5038990;28;20038;-79
2022/09/05 09:10:26;;;;;;;1.00;0.70;;;22.90;99.90;;;;;;5085284;28;20454;-79
2022/09/05 09:13:02;;;;;;;0.80;0.60;;;23.00;99.90;;;;;;5052092;28;20511;-79
2022/09/05 09:15:57;;;;;;;0.85;0.60;;;23.10;99.90;;;;;;5085276;28;20100;-79
2022/09/05 09:18:52;;;;;;;0.77;0.70;;;23.10;99.90;;;;;;5067161;28;20049;-79
2022/09/05 09:21:29;;;;;;;0.57;0.45;;;23.20;99.90;;;;;;5019348;28;20287;-80
2022/09/05 09:24:20;;;;;;;0.70;0.50;;;23.20;99.80;;;;;;5051991;28;20033;-79
2022/09/05 09:27:04;;;;;;;1.50;0.73;;;23.30;99.40;;;;;;5067859;28;20126;-81
2022/09/05 09:29:35;;;;;;;1.05;0.70;;;23.40;99.70;;;;;;5052078;28;20038;-80
2022/09/05 09:32:16;;;;;;;0.73;0.50;;;23.50;99.90;;;;;;5068158;28;20052;-80
2022/09/05 09:35:23;;;;;;;0.47;0.47;;;23.60;99.90;;;;;;5052116;28;20045;-80
2022/09/05 09:38:28;;;;;;;0.80;0.55;;;23.70;99.90;;;;;;5048221;28;20528;-80
2022/09/05 09:41:23;;;;;;;2.10;0.60;;;23.80;99.50;;;;;;5032032;28;20125;-80
2022/09/05 09:44:25;;;;;;;0.75;0.55;;;24.00;99.50;;;;;;5031642;28;20038;-80
2022/09/05 09:46:52;;;;;;;0.30;0.30;;;24.20;99.60;;;;;;5047699;28;20048;-80
2022/09/05 09:49:40;;;;;;;1.70;0.70;;;24.30;99.40;;;;;;5048337;28;20038;-80
2022/09/05 09:52:51;;;;;;;0.93;0.60;;;24.50;99.00;;;;;;5062891;28;20037;-80
2022/09/05 09:55:46;;;;;;;0.73;0.50;;;24.50;99.00;;;;;;5061523;28;20053;-80
2022/09/05 09:58:28;;;;;;;0.52;0.43;;;24.60;99.20;;;;;;5067692;28;20124;-80
2022/09/05 10:01:07;;;;;;;0.60;0.40;;;24.80;99.00;;;;;;5067845;28;20068;-79
2022/09/05 10:03:58;;;;;;;1.75;0.65;;;24.90;98.80;;;;;;5067887;28;20137;-80
2022/09/05 10:07:03;;;;;;;1.02;0.57;;;25.10;99.10;;;;;;5048106;28;20057;-80
2022/09/05 10:09:53;;;;;;;0.90;0.60;;;25.20;98.60;;;;;;5047792;28;20563;-78
2022/09/05 10:12:57;;;;;;;1.35;0.60;;;25.40;98.40;;;;;;5048147;28;20040;-80
2022/09/05 10:15:50;;;;;;;0.68;0.47;;;25.40;98.70;;;;;;5031228;28;20042;-78
2022/09/05 10:18:20;;;;;;;1.55;0.60;;;25.50;97.80;;;;;;5020471;28;20041;-78
2022/09/05 10:21:14;;;;;;;0.93;0.50;;;25.50;97.30;;;;;;5050716;28;20121;-80
2022/09/05 10:24:07;;;;;;;0.90;0.60;;;25.60;98.10;;;;;;5050286;28;20038;-80
2022/09/05 10:27:04;;;;;;;0.50;0.50;;;25.60;97.50;;;;;;5045813;28;20390;-79
2022/09/05 10:29:54;;;;;;;1.50;1.13;;;25.70;97.20;;;;;;5051050;28;20041;-79
2022/09/05 10:32:42;;;;;;;0.68;0.50;;;25.80;97.70;;;;;;5067304;28;20152;-79
2022/09/05 10:35:12;;;;;;;0.35;0.35;;;25.90;97.10;;;;;;5050194;28;20041;-80
2022/09/05 10:37:43;;;;;;;1.10;0.60;;;26.00;97.50;;;;;;5039824;28;20437;-80
2022/09/05 10:40:13;;;;;;;1.35;0.70;;;26.10;97.30;;;;;;5030206;28;20038;-80
2022/09/05 10:42:46;;;;;;;0.60;0.50;;;26.10;97.60;;;;;;5038896;28;20037;-80
2022/09/05 10:45:20;;;;;;;0.85;0.50;;;26.30;97.70;;;;;;5050529;28;20513;-79
2022/09/05 10:47:57;;;;;;;0.55;0.50;;;26.40;96.90;;;;;;5049752;28;20033;-79
2022/09/05 10:50:28;;;;;;;0.70;0.50;;;26.50;97.10;;;;;;5043103;28;20087;-79
2022/09/05 10:53:07;;;;;;;0.68;0.40;;;26.60;96.20;;;;;;5040403;28;20059;-80
2022/09/05 10:55:50;;;;;;;0.40;0.40;;;26.70;96.40;;;;;;5048423;28;20401;-80
2022/09/05 10:58:45;;;;;;;0.85;0.60;;;26.70;95.70;;;;;;5050116;28;20486;-79
2022/09/05 11:01:12;;;;;;;1.73;0.60;;;26.70;96.70;;;;;;5049144;28;20072;-80
2022/09/05 11:03:44;;;;;;;1.13;0.70;;;26.70;96.80;;;;;;5039390;28;20510;-80
2022/09/05 11:06:17;;;;;;;0.90;0.60;;;26.70;96.20;;;;;;5049587;28;20041;-80
2022/09/05 11:08:50;;;;;;;0.50;0.40;;;26.80;96.00;;;;;;5081908;28;20501;-79
2022/09/05 11:11:21;;;;;;;0.32;0.32;;;26.80;96.20;;;;;;5049669;28;20038;-79
2022/09/05 11:13:57;;;;;;;0.57;0.50;;;26.90;96.40;;;;;;5066477;28;20517;-79
2022/09/05 11:16:27;;;;;;;0.80;0.60;;;26.80;96.10;;;;;;5033504;28;20068;-79
2022/09/05 11:19:03;;;;;;;0.52;0.50;;;26.90;96.10;;;;;;5066244;28;20053;-79
2022/09/05 11:21:45;;;;;;;0.77;0.52;;;27.00;95.50;;;;;;5049908;28;20480;-80
2022/09/05 11:24:12;;;;;;;0.20;0.20;;;27.10;95.80;;;;;;5049480;28;20394;-80
2022/09/05 11:26:48;;;;;;;0.40;0.40;;;27.20;96.10;;;;;;5066659;28;20087;-80
2022/09/05 11:29:22;;;;;;;0.50;0.40;;;27.30;96.10;;;;;;5048935;28;20719;-79
2022/09/05 11:32:23;;;;;;;0.73;0.50;;;27.50;96.10;;;;;;5040808;28;20121;-79
2022/09/05 11:35:02;;;;;;;0.38;0.38;;;27.50;95.10;;;;;;5030082;28;20041;-80
2022/09/05 11:37:32;;;;;;;0.52;0.47;;;27.60;95.40;;;;;;5036545;28;20178;-80
2022/09/05 11:40:17;;;;;;;0.73;0.55;;;27.50;95.10;;;;;;5049082;28;20033;-80
2022/09/05 11:43:14;;;;;;;0.40;0.40;;;27.60;95.60;;;;;;5066174;28;20041;-80
2022/09/05 11:46:19;;;;;;;0.40;0.40;;;27.60;95.40;;;;;;5054572;28;20030;-80
2022/09/05 11:48:45;;;;;;;0.63;0.40;;;27.70;94.80;;;;;;5037893;28;20412;-79
2022/09/05 11:51:18;;;;;;;0.45;0.45;;;27.80;95.80;;;;;;5049096;28;20048;-82
2022/09/05 11:53:54;;;;;;;0.90;0.52;;;27.80;94.90;;;;;;5065852;28;21051;-79
2022/09/05 11:56:33;;;;;;;0.57;0.47;;;27.80;95.00;;;;;;5065677;28;20524;-79
2022/09/05 11:59:00;;;;;;;0.50;0.50;;;27.90;94.50;;;;;;5065670;28;20493;-81
2022/09/05 12:01:52;;;;;;;0.50;0.50;;;28.00;94.50;;;;;;5057439;28;20048;-79
2022/09/05 12:04:46;;;;;;;1.20;0.60;;;28.00;94.50;;;;;;5045700;28;20045;-79
2022/09/05 12:07:24;;;;;;;0.32;0.32;;;28.10;94.60;;;;;;5048549;28;20068;-79
2022/09/05 12:10:06;;;;;;;0.43;0.43;;;28.00;94.10;;;;;;5065959;28;20481;-79
2022/09/05 12:12:42;;;;;;;0.40;0.38;;;28.00;94.20;;;;;;5065647;28;20042;-79
2022/09/05 12:15:11;;;;;;;0.50;0.50;;;28.10;94.90;;;;;;5081151;28;20034;-79
2022/09/05 12:17:38;;;;;;;0.50;0.43;;;28.10;94.90;;;;;;5065356;28;20473;-79
2022/09/05 12:20:05;;;;;;;0.40;0.35;;;28.20;94.40;;;;;;5048841;28;20103;-79
2022/09/05 12:22:55;;;;;;;0.93;0.52;;;28.20;94.30;;;;;;5065654;28;20096;-79
2022/09/05 12:25:58;;;;;;;0.50;0.50;;;28.20;94.00;;;;;;5057956;28;20041;-79
2022/09/05 12:28:47;;;;;;;0.35;0.35;;;28.30;93.60;;;;;;4998206;28;20053;-79
2022/09/05 12:31:37;;;;;;;4.22;0.47;;;28.30;94.20;;;;;;5048817;28;20045;-79
2022/09/05 12:34:11;;;;;;;0.40;0.40;;;28.20;93.70;;;;;;5048009;28;20033;-79
2022/09/05 12:36:42;;;;;;;0.40;0.40;;;28.20;94.10;;;;;;5041482;28;20072;-79
2022/09/05 12:39:27;;;;;;;0.47;0.47;;;28.20;93.80;;;;;;5041346;28;20072;-79
2022/09/05 12:41:59;;;;;;;0.43;0.43;;;28.20;93.80;;;;;;5036272;28;20046;-79
2022/09/05 12:45:08;;;;;;;0.50;0.50;;;28.20;94.40;;;;;;5067058;28;20522;-79
2022/09/05 12:47:47;;;;;;;0.43;0.43;;;28.20;94.10;;;;;;5056960;28;20119;-79
2022/09/05 12:50:17;;;;;;;0.40;0.40;;;28.30;93.60;;;;;;5041387;28;20436;-79
2022/09/05 12:52:49;;;;;;;0.40;0.40;;;28.40;93.90;;;;;;5023896;28;20074;-79
2022/09/05 12:55:15;;;;;;;0.50;0.50;;;28.40;94.10;;;;;;5035448;28;20044;-79
2022/09/05 12:57:43;;;;;;;0.40;0.40;;;28.40;93.50;;;;;;5043030;28;20033;-78
2022/09/05 13:00:20;;;;;;;0.57;0.57;;;28.50;93.30;;;;;;5048411;28;20440;-79
2022/09/05 13:02:55;;;;;;;0.50;0.50;;;28.50;93.90;;;;;;5058814;28;20080;-78
2022/09/05 13:05:27;;;;;;;0.35;0.35;;;28.40;93.30;;;;;;5038774;28;20405;-78
2022/09/05 13:07:58;;;;;;;0.65;0.50;;;28.50;93.40;;;;;;5081504;28;20116;-79
2022/09/05 13:10:36;;;;;;;1.17;0.60;;;28.50;93.80;;;;;;5047593;28;20045;-79
2022/09/05 13:13:12;;;;;;;0.30;0.30;;;28.50;93.00;;;;;;5064684;28;20037;-79
2022/09/05 13:15:47;;;;;;;0.50;0.43;;;28.50;93.10;;;;;;5064903;28;20041;-79
2022/09/05 13:18:19;;;;;;;0.65;0.50;;;28.40;93.20;;;;;;5064710;28;20069;-78
2022/09/05 13:21:01;;;;;;;0.80;0.55;;;28.30;93.70;;;;;;5064797;28;20076;-79
2022/09/05 13:23:31;;;;;;;0.47;0.40;;;28.30;93.50;;;;;;5048254;28;20509;-79
2022/09/05 13:26:12;;;;;;;0.63;0.50;;;28.40;93.70;;;;;;5049576;28;20041;-79
2022/09/05 13:28:57;;;;;;;0.50;0.50;;;28.40;93.60;;;;;;5068547;28;20057;-79
2022/09/05 13:31:42;;;;;;;0.50;0.50;;;28.40;92.80;;;;;;5084683;28;20048;-79
2022/09/05 13:34:34;;;;;;;0.43;0.38;;;28.40;92.90;;;;;;5056300;28;20103;-78
2022/09/05 13:37:49;;;;;;;0.55;0.55;;;28.40;93.00;;;;;;5059725;28;20052;-79
2022/09/05 13:40:27;;;;;;;0.85;0.43;;;28.50;92.80;;;;;;5041272;28;20132;-80
2022/09/05 13:43:20;;;;;;;0.50;0.50;;;28.60;93.20;;;;;;5048053;28;20505;-79
2022/09/05 13:46:05;;;;;;;0.47;0.47;;;28.60;92.50;;;;;;5065760;28;20068;-79
2022/09/05 13:48:41;;;;;;;0.40;0.40;;;28.50;92.90;;;;;;5077078;28;20037;-80
2022/09/05 13:51:17;;;;;;;0.40;0.40;;;28.40;92.40;;;;;;5048438;28;20041;-80
2022/09/05 13:53:52;;;;;;;0.40;0.40;;;28.40;92.90;;;;;;5042512;28;20572;-80
2022/09/05 13:56:27;;;;;;;;;;;28.50;92.70;;;;;;5040189;28;20440;-81
2022/09/05 13:59:02;;;;;;;0.85;0.50;;;28.50;92.80;;;;;;5078127;28;19968;-80
2022/09/05 14:01:56;;;;;;;0.52;0.40;;;28.40;92.40;;;;;;5040948;28;20493;-79
2022/09/05 14:04:42;;;;;;;1.35;0.70;;;28.40;92.90;;;;;;5050019;28;20492;-79
2022/09/05 14:07:55;;;;;;;0.30;0.30;;;28.20;92.90;;;;;;5049911;28;20048;-79